createdAt,value
2022-07-31T00:00:20.833Z,66.14
2022-07-31T00:12:21.305Z,64.62
2022-07-31T00:24:21.708Z,65.37
2022-07-31T00:36:22.200Z,64.86
2022-07-31T00:48:22.647Z,70.53
2022-07-31T01:00:23.125Z,72.82
2022-07-31T01:12:23.563Z,68.36
2022-07-31T01:24:24.003Z,67.04
2022-07-31T01:36:24.484Z,65.58
2022-07-31T01:48:24.921Z,68.35
2022-07-31T02:00:34.616Z,69.04
2022-07-31T02:12:32.250Z,65.86
2022-07-31T02:24:26.307Z,70.91
2022-07-31T02:36:26.749Z,71.81
2022-07-31T02:48:27.170Z,67.58
2022-07-31T03:00:27.756Z,68.76
2022-07-31T03:12:28.079Z,71.59
2022-07-31T03:24:28.534Z,72.89
2022-07-31T03:36:28.962Z,72.36
2022-07-31T03:48:29.467Z,70.25
2022-07-31T04:00:29.935Z,71.62
2022-07-31T04:12:30.374Z,72.36
2022-07-31T04:24:30.823Z,68.34
2022-07-31T04:36:31.296Z,70.08
2022-07-31T04:48:31.769Z,70.74
2022-07-31T05:00:32.174Z,75.43
2022-07-31T05:12:32.635Z,69.15
2022-07-31T05:24:34.106Z,70.12
2022-07-31T05:36:33.547Z,68.26
2022-07-31T05:48:34.024Z,50.55
2022-07-31T06:00:34.436Z,47.48
2022-07-31T06:12:34.882Z,46.11
2022-07-31T06:24:35.394Z,46.44
2022-07-31T06:36:35.829Z,45.92
2022-07-31T06:48:36.276Z,43.68
2022-07-31T07:00:36.716Z,45.46
2022-07-31T07:12:37.197Z,41.74
2022-07-31T07:24:37.647Z,41.11
2022-07-31T07:36:38.111Z,40.29
2022-07-31T07:48:38.549Z,38.99
2022-07-31T08:00:39.035Z,39.57
2022-07-31T08:12:39.465Z,40.01
2022-07-31T08:24:39.935Z,41.49
2022-07-31T08:36:40.380Z,37.22
2022-07-31T08:48:40.834Z,36.05
2022-07-31T09:00:41.303Z,38.61
2022-07-31T09:12:41.736Z,37.41
2022-07-31T09:24:42.164Z,34.90
2022-07-31T09:36:42.647Z,39.13
2022-07-31T09:48:43.437Z,37.61
2022-07-31T10:00:43.705Z,36.66
2022-07-31T10:12:43.991Z,34.27
2022-07-31T10:24:44.515Z,34.60
2022-07-31T10:36:44.946Z,32.14
2022-07-31T10:48:45.535Z,33.60
2022-07-31T11:00:45.855Z,32.82
2022-07-31T11:12:46.281Z,34.36
2022-07-31T11:24:46.742Z,30.00
2022-07-31T11:36:51.181Z,30.18
2022-07-31T11:48:47.683Z,32.24
2022-07-31T12:00:48.144Z,31.94
2022-07-31T12:12:48.560Z,31.04
2022-07-31T12:24:49.030Z,31.53
2022-07-31T12:36:49.462Z,31.68
2022-07-31T12:48:50.047Z,31.68
2022-07-31T13:00:50.410Z,33.28
2022-07-31T13:12:50.837Z,31.59
2022-07-31T13:24:51.294Z,30.18
2022-07-31T13:36:51.790Z,26.47
2022-07-31T13:48:52.281Z,28.01
2022-07-31T14:00:52.684Z,26.85
2022-07-31T14:12:53.118Z,28.17
2022-07-31T14:24:53.609Z,28.25
2022-07-31T14:36:54.065Z,28.12
2022-07-31T14:48:54.551Z,29.83
2022-07-31T15:00:54.961Z,28.90
2022-07-31T15:12:55.460Z,30.23
2022-07-31T15:24:55.883Z,29.60
2022-07-31T15:36:56.333Z,29.75
2022-07-31T15:48:56.828Z,30.20
2022-07-31T16:00:57.399Z,29.78
2022-07-31T16:12:57.753Z,30.06
2022-07-31T16:24:58.167Z,30.69
2022-07-31T16:36:58.597Z,29.60
2022-07-31T16:48:59.171Z,33.13
2022-07-31T17:00:59.593Z,32.69
2022-07-31T17:12:59.982Z,33.97
2022-07-31T17:25:00.446Z,31.04
2022-07-31T17:37:00.959Z,33.89
2022-07-31T17:49:01.447Z,38.94
2022-07-31T18:01:01.820Z,39.24
2022-07-31T18:13:02.281Z,41.89
2022-07-31T18:25:02.757Z,41.83
2022-07-31T18:37:03.214Z,43.83
2022-07-31T18:49:03.702Z,45.18
2022-07-31T19:01:04.106Z,45.17
2022-07-31T19:13:04.589Z,46.96
2022-07-31T19:25:05.017Z,48.30
2022-07-31T19:37:05.428Z,50.64
2022-07-31T19:49:05.968Z,50.16
2022-07-31T20:01:06.416Z,49.62
2022-07-31T20:13:06.841Z,50.92
2022-07-31T20:25:19.492Z,52.48
2022-07-31T20:37:07.747Z,54.36
2022-07-31T20:49:08.263Z,53.11
2022-07-31T21:01:08.722Z,56.30
2022-07-31T21:13:09.117Z,59.12
2022-07-31T21:25:09.569Z,56.61
2022-07-31T21:37:10.015Z,55.63
2022-07-31T21:49:10.513Z,54.10
2022-07-31T22:01:10.995Z,55.51
2022-07-31T22:13:11.376Z,56.14
2022-07-31T22:25:11.878Z,57.81
2022-07-31T22:37:12.260Z,58.12
2022-07-31T22:49:12.754Z,60.01
2022-07-31T23:01:13.205Z,59.33
2022-07-31T23:13:13.649Z,62.91
2022-07-31T23:25:14.094Z,57.24
2022-07-31T23:37:14.543Z,59.12
2022-07-31T23:49:15.078Z,58.07
